sensor_id;sensor_type;location;lat;lon;timestamp;P1;durP1;ratioP1;P2;durP2;ratioP2
4021;SDS011;2025;48.260;16.432;2023-04-24T00:02:26;5.97;;;2.22;;
4021;SDS011;2025;48.260;16.432;2023-04-24T00:04:53;5.22;;;2.40;;
4021;SDS011;2025;48.260;16.432;2023-04-24T00:07:20;6.55;;;2.08;;
4021;SDS011;2025;48.260;16.432;2023-04-24T00:09:47;5.57;;;2.33;;
4021;SDS011;2025;48.260;16.432;2023-04-24T00:12:14;5.75;;;2.95;;
4021;SDS011;2025;48.260;16.432;2023-04-24T00:14:41;5.22;;;2.15;;
4021;SDS011;2025;48.260;16.432;2023-04-24T00:17:08;5.88;;;2.22;;
4021;SDS011;2025;48.260;16.432;2023-04-24T00:19:36;7.82;;;2.58;;
4021;SDS011;2025;48.260;16.432;2023-04-24T00:22:04;6.47;;;2.10;;
4021;SDS011;2025;48.260;16.432;2023-04-24T00:24:31;5.40;;;2.67;;
4021;SDS011;2025;48.260;16.432;2023-04-24T00:26:58;4.85;;;1.90;;
4021;SDS011;2025;48.260;16.432;2023-04-24T00:29:26;6.22;;;2.08;;
4021;SDS011;2025;48.260;16.432;2023-04-24T00:31:53;6.43;;;2.13;;
4021;SDS011;2025;48.260;16.432;2023-04-24T00:34:20;6.05;;;2.22;;
4021;SDS011;2025;48.260;16.432;2023-04-24T00:36:49;8.35;;;2.75;;
4021;SDS011;2025;48.260;16.432;2023-04-24T00:39:17;6.47;;;2.50;;
4021;SDS011;2025;48.260;16.432;2023-04-24T00:41:44;6.03;;;2.20;;
4021;SDS011;2025;48.260;16.432;2023-04-24T00:44:12;7.05;;;2.55;;
4021;SDS011;2025;48.260;16.432;2023-04-24T00:46:39;6.32;;;2.28;;
4021;SDS011;2025;48.260;16.432;2023-04-24T00:49:07;5.18;;;2.25;;
4021;SDS011;2025;48.260;16.432;2023-04-24T00:51:34;6.80;;;2.72;;
4021;SDS011;2025;48.260;16.432;2023-04-24T00:54:03;6.20;;;2.67;;
4021;SDS011;2025;48.260;16.432;2023-04-24T00:56:30;6.35;;;2.80;;
4021;SDS011;2025;48.260;16.432;2023-04-24T00:58:57;6.40;;;3.00;;
4021;SDS011;2025;48.260;16.432;2023-04-24T01:01:25;6.55;;;3.45;;
4021;SDS011;2025;48.260;16.432;2023-04-24T01:03:52;7.15;;;3.38;;
4021;SDS011;2025;48.260;16.432;2023-04-24T01:06:19;7.03;;;3.13;;
4021;SDS011;2025;48.260;16.432;2023-04-24T01:08:48;7.15;;;3.08;;
4021;SDS011;2025;48.260;16.432;2023-04-24T01:11:17;6.72;;;2.88;;
4021;SDS011;2025;48.260;16.432;2023-04-24T01:13:44;7.45;;;3.85;;
4021;SDS011;2025;48.260;16.432;2023-04-24T01:16:12;8.55;;;3.58;;
4021;SDS011;2025;48.260;16.432;2023-04-24T01:18:40;7.07;;;3.75;;
4021;SDS011;2025;48.260;16.432;2023-04-24T01:21:07;7.25;;;3.17;;
4021;SDS011;2025;48.260;16.432;2023-04-24T01:23:36;7.15;;;3.67;;
4021;SDS011;2025;48.260;16.432;2023-04-24T01:26:03;8.07;;;4.15;;
4021;SDS011;2025;48.260;16.432;2023-04-24T01:28:30;7.90;;;3.72;;
4021;SDS011;2025;48.260;16.432;2023-04-24T01:30:57;8.35;;;3.70;;
4021;SDS011;2025;48.260;16.432;2023-04-24T01:33:25;7.30;;;3.67;;
4021;SDS011;2025;48.260;16.432;2023-04-24T01:35:52;7.40;;;4.30;;
4021;SDS011;2025;48.260;16.432;2023-04-24T01:38:20;7.45;;;3.65;;
4021;SDS011;2025;48.260;16.432;2023-04-24T01:40:49;8.18;;;3.83;;
4021;SDS011;2025;48.260;16.432;2023-04-24T01:43:25;8.90;;;4.40;;
4021;SDS011;2025;48.260;16.432;2023-04-24T01:45:52;7.40;;;3.55;;
4021;SDS011;2025;48.260;16.432;2023-04-24T01:48:19;8.65;;;4.25;;
4021;SDS011;2025;48.260;16.432;2023-04-24T01:50:46;8.35;;;4.45;;
4021;SDS011;2025;48.260;16.432;2023-04-24T01:53:13;8.52;;;4.53;;
4021;SDS011;2025;48.260;16.432;2023-04-24T01:55:40;9.27;;;4.80;;
4021;SDS011;2025;48.260;16.432;2023-04-24T01:58:07;9.50;;;4.78;;
4021;SDS011;2025;48.260;16.432;2023-04-24T02:00:36;8.93;;;5.40;;
4021;SDS011;2025;48.260;16.432;2023-04-24T02:03:03;9.60;;;4.63;;
4021;SDS011;2025;48.260;16.432;2023-04-24T02:05:31;8.80;;;4.43;;
4021;SDS011;2025;48.260;16.432;2023-04-24T02:07:58;8.70;;;4.70;;
4021;SDS011;2025;48.260;16.432;2023-04-24T02:10:25;8.35;;;4.63;;
4021;SDS011;2025;48.260;16.432;2023-04-24T02:12:51;9.15;;;5.15;;
4021;SDS011;2025;48.260;16.432;2023-04-24T02:15:19;9.93;;;4.78;;
4021;SDS011;2025;48.260;16.432;2023-04-24T02:17:47;8.35;;;4.50;;
4021;SDS011;2025;48.260;16.432;2023-04-24T02:20:14;11.65;;;5.50;;
4021;SDS011;2025;48.260;16.432;2023-04-24T02:22:42;8.38;;;4.80;;
4021;SDS011;2025;48.260;16.432;2023-04-24T02:25:09;11.27;;;5.55;;
4021;SDS011;2025;48.260;16.432;2023-04-24T02:27:36;8.35;;;4.72;;
4021;SDS011;2025;48.260;16.432;2023-04-24T02:30:04;8.90;;;5.10;;
4021;SDS011;2025;48.260;16.432;2023-04-24T02:32:32;9.13;;;4.85;;
4021;SDS011;2025;48.260;16.432;2023-04-24T02:35:00;11.43;;;5.75;;
4021;SDS011;2025;48.260;16.432;2023-04-24T02:37:27;9.55;;;4.47;;
4021;SDS011;2025;48.260;16.432;2023-04-24T02:39:55;10.60;;;5.00;;
4021;SDS011;2025;48.260;16.432;2023-04-24T02:42:22;8.32;;;4.13;;
4021;SDS011;2025;48.260;16.432;2023-04-24T02:44:49;8.15;;;3.30;;
4021;SDS011;2025;48.260;16.432;2023-04-24T02:47:16;8.95;;;3.95;;
4021;SDS011;2025;48.260;16.432;2023-04-24T02:49:43;8.07;;;3.85;;
4021;SDS011;2025;48.260;16.432;2023-04-24T02:52:11;7.40;;;2.97;;
4021;SDS011;2025;48.260;16.432;2023-04-24T02:54:39;7.70;;;3.50;;
4021;SDS011;2025;48.260;16.432;2023-04-24T02:57:06;7.30;;;3.20;;
4021;SDS011;2025;48.260;16.432;2023-04-24T02:59:33;6.95;;;3.38;;
4021;SDS011;2025;48.260;16.432;2023-04-24T03:02:00;6.72;;;3.30;;
4021;SDS011;2025;48.260;16.432;2023-04-24T03:04:27;6.20;;;2.60;;
4021;SDS011;2025;48.260;16.432;2023-04-24T03:06:54;8.13;;;2.83;;
4021;SDS011;2025;48.260;16.432;2023-04-24T03:09:23;6.47;;;2.72;;
4021;SDS011;2025;48.260;16.432;2023-04-24T03:11:50;6.65;;;2.72;;
4021;SDS011;2025;48.260;16.432;2023-04-24T03:14:17;7.00;;;2.53;;
4021;SDS011;2025;48.260;16.432;2023-04-24T03:16:44;6.50;;;2.40;;
4021;SDS011;2025;48.260;16.432;2023-04-24T03:19:11;5.35;;;1.88;;
4021;SDS011;2025;48.260;16.432;2023-04-24T03:21:38;6.20;;;2.60;;
4021;SDS011;2025;48.260;16.432;2023-04-24T03:24:06;8.43;;;2.67;;
4021;SDS011;2025;48.260;16.432;2023-04-24T03:26:35;5.72;;;2.40;;
4021;SDS011;2025;48.260;16.432;2023-04-24T03:29:02;5.50;;;2.25;;
4021;SDS011;2025;48.260;16.432;2023-04-24T03:31:29;6.75;;;1.95;;
4021;SDS011;2025;48.260;16.432;2023-04-24T03:33:56;5.45;;;2.45;;
4021;SDS011;2025;48.260;16.432;2023-04-24T03:36:23;5.15;;;2.67;;
4021;SDS011;2025;48.260;16.432;2023-04-24T03:38:51;4.97;;;1.92;;
4021;SDS011;2025;48.260;16.432;2023-04-24T03:41:18;5.72;;;1.77;;
4021;SDS011;2025;48.260;16.432;2023-04-24T03:43:46;5.25;;;1.98;;
4021;SDS011;2025;48.260;16.432;2023-04-24T03:46:13;5.30;;;2.25;;
4021;SDS011;2025;48.260;16.432;2023-04-24T03:48:40;5.97;;;2.22;;
4021;SDS011;2025;48.260;16.432;2023-04-24T03:51:07;5.63;;;2.13;;
4021;SDS011;2025;48.260;16.432;2023-04-24T03:53:34;6.85;;;2.45;;
4021;SDS011;2025;48.260;16.432;2023-04-24T03:56:01;6.75;;;2.40;;
4021;SDS011;2025;48.260;16.432;2023-04-24T03:58:29;4.88;;;1.75;;
4021;SDS011;2025;48.260;16.432;2023-04-24T04:00:57;5.07;;;1.88;;
4021;SDS011;2025;48.260;16.432;2023-04-24T04:03:24;6.95;;;2.35;;
4021;SDS011;2025;48.260;16.432;2023-04-24T04:05:51;5.35;;;2.15;;
4021;SDS011;2025;48.260;16.432;2023-04-24T04:08:19;5.15;;;1.95;;
4021;SDS011;2025;48.260;16.432;2023-04-24T04:10:46;5.82;;;2.22;;
4021;SDS011;2025;48.260;16.432;2023-04-24T04:13:13;5.20;;;2.45;;
4021;SDS011;2025;48.260;16.432;2023-04-24T04:15:40;6.10;;;1.88;;
4021;SDS011;2025;48.260;16.432;2023-04-24T04:18:08;5.38;;;1.92;;
4021;SDS011;2025;48.260;16.432;2023-04-24T04:20:35;5.47;;;1.95;;
4021;SDS011;2025;48.260;16.432;2023-04-24T04:23:02;4.38;;;1.70;;
4021;SDS011;2025;48.260;16.432;2023-04-24T04:25:29;4.95;;;1.88;;
4021;SDS011;2025;48.260;16.432;2023-04-24T04:27:56;7.75;;;3.28;;
4021;SDS011;2025;48.260;16.432;2023-04-24T04:30:24;6.38;;;2.13;;
4021;SDS011;2025;48.260;16.432;2023-04-24T04:32:54;6.30;;;2.63;;
4021;SDS011;2025;48.260;16.432;2023-04-24T04:35:23;4.88;;;1.65;;
4021;SDS011;2025;48.260;16.432;2023-04-24T04:37:50;4.75;;;2.10;;
4021;SDS011;2025;48.260;16.432;2023-04-24T04:40:17;4.93;;;1.92;;
4021;SDS011;2025;48.260;16.432;2023-04-24T04:42:44;4.55;;;1.92;;
4021;SDS011;2025;48.260;16.432;2023-04-24T04:45:12;4.90;;;1.67;;
4021;SDS011;2025;48.260;16.432;2023-04-24T04:47:41;5.53;;;2.05;;
4021;SDS011;2025;48.260;16.432;2023-04-24T04:50:09;5.13;;;1.80;;
4021;SDS011;2025;48.260;16.432;2023-04-24T04:52:38;6.75;;;1.65;;
4021;SDS011;2025;48.260;16.432;2023-04-24T04:55:05;6.00;;;1.67;;
4021;SDS011;2025;48.260;16.432;2023-04-24T04:57:33;5.05;;;2.17;;
4021;SDS011;2025;48.260;16.432;2023-04-24T05:00:00;4.55;;;1.33;;
4021;SDS011;2025;48.260;16.432;2023-04-24T05:02:27;4.57;;;1.95;;
4021;SDS011;2025;48.260;16.432;2023-04-24T05:07:21;4.43;;;1.23;;
4021;SDS011;2025;48.260;16.432;2023-04-24T05:09:50;4.40;;;1.30;;
4021;SDS011;2025;48.260;16.432;2023-04-24T05:12:17;4.60;;;1.80;;
4021;SDS011;2025;48.260;16.432;2023-04-24T05:14:44;4.07;;;1.02;;
4021;SDS011;2025;48.260;16.432;2023-04-24T05:17:11;4.50;;;1.45;;
4021;SDS011;2025;48.260;16.432;2023-04-24T05:19:38;3.20;;;1.25;;
4021;SDS011;2025;48.260;16.432;2023-04-24T05:22:05;3.33;;;1.02;;
4021;SDS011;2025;48.260;16.432;2023-04-24T05:24:32;6.63;;;1.42;;
4021;SDS011;2025;48.260;16.432;2023-04-24T05:27:01;4.00;;;1.45;;
4021;SDS011;2025;48.260;16.432;2023-04-24T05:29:29;3.72;;;1.27;;
4021;SDS011;2025;48.260;16.432;2023-04-24T05:31:58;3.50;;;0.98;;
4021;SDS011;2025;48.260;16.432;2023-04-24T05:34:25;3.95;;;1.27;;
4021;SDS011;2025;48.260;16.432;2023-04-24T05:36:52;5.63;;;1.20;;
4021;SDS011;2025;48.260;16.432;2023-04-24T05:39:19;4.80;;;1.10;;
4021;SDS011;2025;48.260;16.432;2023-04-24T05:41:46;4.30;;;1.17;;
4021;SDS011;2025;48.260;16.432;2023-04-24T05:44:15;3.30;;;0.73;;
4021;SDS011;2025;48.260;16.432;2023-04-24T05:46:41;4.95;;;1.30;;
4021;SDS011;2025;48.260;16.432;2023-04-24T05:49:08;3.20;;;0.95;;
4021;SDS011;2025;48.260;16.432;2023-04-24T05:51:35;4.43;;;1.08;;
4021;SDS011;2025;48.260;16.432;2023-04-24T05:54:04;5.55;;;1.40;;
4021;SDS011;2025;48.260;16.432;2023-04-24T05:56:31;3.60;;;0.98;;
4021;SDS011;2025;48.260;16.432;2023-04-24T05:58:58;2.95;;;0.73;;
4021;SDS011;2025;48.260;16.432;2023-04-24T06:01:26;3.90;;;1.10;;
4021;SDS011;2025;48.260;16.432;2023-04-24T06:03:53;4.25;;;1.05;;
4021;SDS011;2025;48.260;16.432;2023-04-24T06:06:20;2.75;;;0.75;;
4021;SDS011;2025;48.260;16.432;2023-04-24T06:08:47;3.92;;;1.00;;
4021;SDS011;2025;48.260;16.432;2023-04-24T06:11:14;4.07;;;0.75;;
4021;SDS011;2025;48.260;16.432;2023-04-24T06:13:42;3.50;;;0.82;;
4021;SDS011;2025;48.260;16.432;2023-04-24T06:16:09;3.97;;;0.73;;
4021;SDS011;2025;48.260;16.432;2023-04-24T06:18:37;3.35;;;1.45;;
4021;SDS011;2025;48.260;16.432;2023-04-24T06:21:04;3.95;;;0.70;;
4021;SDS011;2025;48.260;16.432;2023-04-24T06:23:31;2.45;;;0.60;;
4021;SDS011;2025;48.260;16.432;2023-04-24T06:25:58;3.53;;;0.82;;
4021;SDS011;2025;48.260;16.432;2023-04-24T06:28:25;5.53;;;0.95;;
4021;SDS011;2025;48.260;16.432;2023-04-24T06:30:52;3.20;;;0.57;;
4021;SDS011;2025;48.260;16.432;2023-04-24T06:33:19;2.45;;;0.70;;
4021;SDS011;2025;48.260;16.432;2023-04-24T06:35:48;4.63;;;0.85;;
4021;SDS011;2025;48.260;16.432;2023-04-24T06:38:15;5.40;;;0.52;;
4021;SDS011;2025;48.260;16.432;2023-04-24T06:40:42;3.42;;;0.95;;
4021;SDS011;2025;48.260;16.432;2023-04-24T06:43:09;6.32;;;1.52;;
4021;SDS011;2025;48.260;16.432;2023-04-24T06:45:36;3.38;;;0.82;;
4021;SDS011;2025;48.260;16.432;2023-04-24T06:48:04;3.30;;;0.77;;
4021;SDS011;2025;48.260;16.432;2023-04-24T06:50:31;2.88;;;0.68;;
4021;SDS011;2025;48.260;16.432;2023-04-24T06:52:59;3.33;;;0.68;;
4021;SDS011;2025;48.260;16.432;2023-04-24T06:55:26;2.92;;;0.77;;
4021;SDS011;2025;48.260;16.432;2023-04-24T06:57:53;3.35;;;1.13;;
4021;SDS011;2025;48.260;16.432;2023-04-24T07:00:20;7.40;;;0.95;;
4021;SDS011;2025;48.260;16.432;2023-04-24T07:02:49;5.35;;;1.25;;
4021;SDS011;2025;48.260;16.432;2023-04-24T07:05:16;4.80;;;1.23;;
4021;SDS011;2025;48.260;16.432;2023-04-24T07:07:45;4.47;;;1.45;;
4021;SDS011;2025;48.260;16.432;2023-04-24T07:10:14;3.50;;;0.93;;
4021;SDS011;2025;48.260;16.432;2023-04-24T07:12:41;6.55;;;1.27;;
4021;SDS011;2025;48.260;16.432;2023-04-24T07:15:08;3.95;;;1.02;;
4021;SDS011;2025;48.260;16.432;2023-04-24T07:17:36;6.07;;;1.35;;
4021;SDS011;2025;48.260;16.432;2023-04-24T07:20:03;4.22;;;2.10;;
4021;SDS011;2025;48.260;16.432;2023-04-24T07:22:34;4.55;;;1.33;;
4021;SDS011;2025;48.260;16.432;2023-04-24T07:25:01;3.78;;;1.17;;
4021;SDS011;2025;48.260;16.432;2023-04-24T07:27:29;3.92;;;1.00;;
4021;SDS011;2025;48.260;16.432;2023-04-24T07:29:56;3.25;;;0.90;;
4021;SDS011;2025;48.260;16.432;2023-04-24T07:32:23;3.80;;;1.05;;
4021;SDS011;2025;48.260;16.432;2023-04-24T07:34:50;3.40;;;0.80;;
4021;SDS011;2025;48.260;16.432;2023-04-24T07:37:17;5.22;;;0.90;;
4021;SDS011;2025;48.260;16.432;2023-04-24T07:39:44;3.58;;;0.98;;
4021;SDS011;2025;48.260;16.432;2023-04-24T07:42:11;3.50;;;1.08;;
4021;SDS011;2025;48.260;16.432;2023-04-24T07:44:39;3.97;;;1.25;;
4021;SDS011;2025;48.260;16.432;2023-04-24T07:47:07;3.58;;;1.02;;
4021;SDS011;2025;48.260;16.432;2023-04-24T07:49:35;3.67;;;0.82;;
4021;SDS011;2025;48.260;16.432;2023-04-24T07:52:02;4.05;;;0.93;;
4021;SDS011;2025;48.260;16.432;2023-04-24T07:54:29;3.17;;;1.17;;
4021;SDS011;2025;48.260;16.432;2023-04-24T07:56:56;3.83;;;1.20;;
4021;SDS011;2025;48.260;16.432;2023-04-24T07:59:23;4.18;;;0.68;;
4021;SDS011;2025;48.260;16.432;2023-04-24T08:01:51;3.78;;;1.02;;
4021;SDS011;2025;48.260;16.432;2023-04-24T08:04:19;3.05;;;0.65;;
4021;SDS011;2025;48.260;16.432;2023-04-24T08:06:46;3.28;;;1.02;;
4021;SDS011;2025;48.260;16.432;2023-04-24T08:09:14;3.78;;;0.88;;
4021;SDS011;2025;48.260;16.432;2023-04-24T08:11:41;3.95;;;1.25;;
4021;SDS011;2025;48.260;16.432;2023-04-24T08:14:08;3.28;;;0.73;;
4021;SDS011;2025;48.260;16.432;2023-04-24T08:16:37;4.82;;;0.85;;
4021;SDS011;2025;48.260;16.432;2023-04-24T08:19:05;2.75;;;0.55;;
4021;SDS011;2025;48.260;16.432;2023-04-24T08:21:32;3.92;;;0.65;;
4021;SDS011;2025;48.260;16.432;2023-04-24T08:23:59;3.40;;;0.85;;
4021;SDS011;2025;48.260;16.432;2023-04-24T08:26:30;3.72;;;0.75;;
4021;SDS011;2025;48.260;16.432;2023-04-24T08:28:57;2.95;;;1.08;;
4021;SDS011;2025;48.260;16.432;2023-04-24T08:31:24;3.42;;;0.90;;
4021;SDS011;2025;48.260;16.432;2023-04-24T08:33:51;3.70;;;0.63;;
4021;SDS011;2025;48.260;16.432;2023-04-24T08:36:20;2.92;;;1.38;;
4021;SDS011;2025;48.260;16.432;2023-04-24T08:38:47;3.90;;;1.15;;
4021;SDS011;2025;48.260;16.432;2023-04-24T08:41:14;3.33;;;1.08;;
4021;SDS011;2025;48.260;16.432;2023-04-24T08:43:42;3.42;;;0.93;;
4021;SDS011;2025;48.260;16.432;2023-04-24T08:46:09;2.97;;;0.82;;
4021;SDS011;2025;48.260;16.432;2023-04-24T08:48:39;3.50;;;0.90;;
4021;SDS011;2025;48.260;16.432;2023-04-24T08:51:06;3.05;;;0.77;;
4021;SDS011;2025;48.260;16.432;2023-04-24T08:53:35;2.35;;;0.65;;
4021;SDS011;2025;48.260;16.432;2023-04-24T08:56:03;2.10;;;0.38;;
4021;SDS011;2025;48.260;16.432;2023-04-24T08:58:31;3.00;;;0.65;;
4021;SDS011;2025;48.260;16.432;2023-04-24T09:00:58;2.03;;;0.70;;
4021;SDS011;2025;48.260;16.432;2023-04-24T09:03:26;2.70;;;0.65;;
4021;SDS011;2025;48.260;16.432;2023-04-24T09:05:55;3.17;;;0.95;;
4021;SDS011;2025;48.260;16.432;2023-04-24T09:08:24;1.75;;;0.35;;
4021;SDS011;2025;48.260;16.432;2023-04-24T09:10:53;3.38;;;0.88;;
4021;SDS011;2025;48.260;16.432;2023-04-24T09:13:20;3.55;;;0.65;;
4021;SDS011;2025;48.260;16.432;2023-04-24T09:15:47;1.75;;;0.35;;
4021;SDS011;2025;48.260;16.432;2023-04-24T09:18:14;2.83;;;0.57;;
4021;SDS011;2025;48.260;16.432;2023-04-24T09:20:57;2.45;;;0.73;;
4021;SDS011;2025;48.260;16.432;2023-04-24T09:23:25;2.22;;;0.73;;
4021;SDS011;2025;48.260;16.432;2023-04-24T09:25:55;2.92;;;0.35;;
4021;SDS011;2025;48.260;16.432;2023-04-24T09:28:26;3.25;;;0.63;;
4021;SDS011;2025;48.260;16.432;2023-04-24T09:31:02;2.35;;;0.63;;
4021;SDS011;2025;48.260;16.432;2023-04-24T09:33:30;2.90;;;0.68;;
4021;SDS011;2025;48.260;16.432;2023-04-24T09:35:57;2.55;;;0.35;;
4021;SDS011;2025;48.260;16.432;2023-04-24T09:38:30;1.60;;;0.45;;
4021;SDS011;2025;48.260;16.432;2023-04-24T09:41:00;2.75;;;0.60;;
4021;SDS011;2025;48.260;16.432;2023-04-24T09:43:28;2.50;;;0.50;;
4021;SDS011;2025;48.260;16.432;2023-04-24T09:45:56;4.47;;;0.63;;
4021;SDS011;2025;48.260;16.432;2023-04-24T09:48:31;2.28;;;0.57;;
4021;SDS011;2025;48.260;16.432;2023-04-24T09:50:58;2.00;;;0.40;;
4021;SDS011;2025;48.260;16.432;2023-04-24T09:53:26;2.45;;;0.32;;
4021;SDS011;2025;48.260;16.432;2023-04-24T09:55:53;2.95;;;0.40;;
4021;SDS011;2025;48.260;16.432;2023-04-24T09:58:25;2.88;;;0.63;;
4021;SDS011;2025;48.260;16.432;2023-04-24T10:00:55;1.98;;;0.50;;
4021;SDS011;2025;48.260;16.432;2023-04-24T10:03:23;2.17;;;0.38;;
4021;SDS011;2025;48.260;16.432;2023-04-24T10:05:54;2.88;;;0.52;;
4021;SDS011;2025;48.260;16.432;2023-04-24T10:08:25;3.00;;;0.35;;
4021;SDS011;2025;48.260;16.432;2023-04-24T10:10:52;2.80;;;0.65;;
4021;SDS011;2025;48.260;16.432;2023-04-24T10:13:19;1.88;;;0.25;;
4021;SDS011;2025;48.260;16.432;2023-04-24T10:15:48;2.45;;;0.65;;
4021;SDS011;2025;48.260;16.432;2023-04-24T10:18:16;1.80;;;0.70;;
4021;SDS011;2025;48.260;16.432;2023-04-24T10:20:44;2.13;;;0.52;;
4021;SDS011;2025;48.260;16.432;2023-04-24T10:23:11;2.55;;;0.88;;
4021;SDS011;2025;48.260;16.432;2023-04-24T10:25:38;2.10;;;0.65;;
4021;SDS011;2025;48.260;16.432;2023-04-24T10:28:06;1.38;;;0.35;;
4021;SDS011;2025;48.260;16.432;2023-04-24T10:30:33;1.50;;;0.50;;
4021;SDS011;2025;48.260;16.432;2023-04-24T10:33:03;1.83;;;0.22;;
4021;SDS011;2025;48.260;16.432;2023-04-24T10:35:31;1.42;;;0.25;;
4021;SDS011;2025;48.260;16.432;2023-04-24T10:38:02;1.83;;;0.40;;
4021;SDS011;2025;48.260;16.432;2023-04-24T10:40:32;3.40;;;0.45;;
4021;SDS011;2025;48.260;16.432;2023-04-24T10:43:02;2.63;;;0.30;;
4021;SDS011;2025;48.260;16.432;2023-04-24T10:45:31;3.63;;;0.45;;
4021;SDS011;2025;48.260;16.432;2023-04-24T10:47:59;1.70;;;0.60;;
4021;SDS011;2025;48.260;16.432;2023-04-24T10:50:29;1.80;;;0.22;;
4021;SDS011;2025;48.260;16.432;2023-04-24T10:53:14;2.38;;;0.25;;
4021;SDS011;2025;48.260;16.432;2023-04-24T10:55:43;1.83;;;0.25;;
4021;SDS011;2025;48.260;16.432;2023-04-24T10:58:11;2.15;;;0.45;;
4021;SDS011;2025;48.260;16.432;2023-04-24T11:00:40;2.63;;;0.45;;
4021;SDS011;2025;48.260;16.432;2023-04-24T11:03:22;2.40;;;0.30;;
4021;SDS011;2025;48.260;16.432;2023-04-24T11:05:53;2.33;;;0.35;;
4021;SDS011;2025;48.260;16.432;2023-04-24T11:08:23;3.38;;;0.52;;
4021;SDS011;2025;48.260;16.432;2023-04-24T11:11:03;2.80;;;0.35;;
4021;SDS011;2025;48.260;16.432;2023-04-24T11:16:44;3.13;;;0.65;;
4021;SDS011;2025;48.260;16.432;2023-04-24T11:19:18;1.95;;;0.32;;
4021;SDS011;2025;48.260;16.432;2023-04-24T11:21:55;3.22;;;0.80;;
4021;SDS011;2025;48.260;16.432;2023-04-24T11:24:25;3.17;;;0.85;;
4021;SDS011;2025;48.260;16.432;2023-04-24T11:27:00;2.10;;;0.65;;
4021;SDS011;2025;48.260;16.432;2023-04-24T11:29:39;2.53;;;0.63;;
4021;SDS011;2025;48.260;16.432;2023-04-24T11:34:56;2.80;;;0.38;;
4021;SDS011;2025;48.260;16.432;2023-04-24T11:37:26;2.30;;;0.40;;
4021;SDS011;2025;48.260;16.432;2023-04-24T11:39:56;2.30;;;0.60;;
4021;SDS011;2025;48.260;16.432;2023-04-24T11:42:24;3.38;;;0.88;;
4021;SDS011;2025;48.260;16.432;2023-04-24T11:44:52;2.60;;;0.85;;
4021;SDS011;2025;48.260;16.432;2023-04-24T11:47:20;2.95;;;0.38;;
4021;SDS011;2025;48.260;16.432;2023-04-24T11:49:54;2.13;;;0.80;;
4021;SDS011;2025;48.260;16.432;2023-04-24T11:52:21;3.90;;;0.45;;
4021;SDS011;2025;48.260;16.432;2023-04-24T11:54:50;5.43;;;0.43;;
4021;SDS011;2025;48.260;16.432;2023-04-24T11:57:18;3.10;;;0.65;;
4021;SDS011;2025;48.260;16.432;2023-04-24T11:59:46;4.18;;;0.63;;
4021;SDS011;2025;48.260;16.432;2023-04-24T12:02:22;2.90;;;0.45;;
4021;SDS011;2025;48.260;16.432;2023-04-24T12:04:49;3.40;;;0.45;;
4021;SDS011;2025;48.260;16.432;2023-04-24T12:07:16;2.53;;;0.65;;
4021;SDS011;2025;48.260;16.432;2023-04-24T12:09:44;3.63;;;1.40;;
4021;SDS011;2025;48.260;16.432;2023-04-24T12:12:14;2.97;;;0.65;;
4021;SDS011;2025;48.260;16.432;2023-04-24T12:14:42;3.45;;;0.93;;
4021;SDS011;2025;48.260;16.432;2023-04-24T12:17:10;3.20;;;0.77;;
4021;SDS011;2025;48.260;16.432;2023-04-24T12:19:37;2.90;;;0.63;;
4021;SDS011;2025;48.260;16.432;2023-04-24T12:22:11;3.22;;;0.75;;
4021;SDS011;2025;48.260;16.432;2023-04-24T12:27:24;4.13;;;1.73;;
4021;SDS011;2025;48.260;16.432;2023-04-24T12:29:52;4.78;;;0.98;;
4021;SDS011;2025;48.260;16.432;2023-04-24T12:32:19;3.90;;;1.40;;
4021;SDS011;2025;48.260;16.432;2023-04-24T12:34:46;3.63;;;1.40;;
4021;SDS011;2025;48.260;16.432;2023-04-24T12:37:13;4.25;;;0.95;;
4021;SDS011;2025;48.260;16.432;2023-04-24T12:39:44;4.40;;;1.08;;
4021;SDS011;2025;48.260;16.432;2023-04-24T12:42:26;6.15;;;1.50;;
4021;SDS011;2025;48.260;16.432;2023-04-24T12:44:58;3.28;;;0.75;;
4021;SDS011;2025;48.260;16.432;2023-04-24T12:47:26;3.38;;;0.73;;
4021;SDS011;2025;48.260;16.432;2023-04-24T12:49:53;3.50;;;0.70;;
4021;SDS011;2025;48.260;16.432;2023-04-24T12:52:21;3.42;;;1.10;;
4021;SDS011;2025;48.260;16.432;2023-04-24T12:54:49;4.43;;;1.05;;
4021;SDS011;2025;48.260;16.432;2023-04-24T12:57:18;3.75;;;0.80;;
4021;SDS011;2025;48.260;16.432;2023-04-24T12:59:46;3.15;;;1.60;;
4021;SDS011;2025;48.260;16.432;2023-04-24T13:02:13;3.33;;;0.68;;
4021;SDS011;2025;48.260;16.432;2023-04-24T13:04:42;3.13;;;1.10;;
4021;SDS011;2025;48.260;16.432;2023-04-24T13:07:10;2.25;;;0.35;;
4021;SDS011;2025;48.260;16.432;2023-04-24T13:09:37;2.47;;;0.35;;
4021;SDS011;2025;48.260;16.432;2023-04-24T13:12:04;2.90;;;0.77;;
4021;SDS011;2025;48.260;16.432;2023-04-24T13:14:31;2.15;;;0.65;;
4021;SDS011;2025;48.260;16.432;2023-04-24T13:17:00;3.08;;;0.38;;
4021;SDS011;2025;48.260;16.432;2023-04-24T13:19:28;2.78;;;0.65;;
4021;SDS011;2025;48.260;16.432;2023-04-24T13:21:56;2.60;;;0.55;;
4021;SDS011;2025;48.260;16.432;2023-04-24T13:24:24;2.88;;;0.60;;
4021;SDS011;2025;48.260;16.432;2023-04-24T13:26:51;3.55;;;0.52;;
4021;SDS011;2025;48.260;16.432;2023-04-24T13:29:18;2.50;;;1.25;;
4021;SDS011;2025;48.260;16.432;2023-04-24T13:31:46;3.42;;;0.85;;
4021;SDS011;2025;48.260;16.432;2023-04-24T13:34:15;2.70;;;0.40;;
4021;SDS011;2025;48.260;16.432;2023-04-24T13:36:42;2.65;;;0.50;;
4021;SDS011;2025;48.260;16.432;2023-04-24T13:39:10;5.95;;;0.75;;
4021;SDS011;2025;48.260;16.432;2023-04-24T13:41:36;3.05;;;0.57;;
4021;SDS011;2025;48.260;16.432;2023-04-24T13:44:04;4.95;;;1.30;;
4021;SDS011;2025;48.260;16.432;2023-04-24T13:46:33;4.00;;;1.02;;
4021;SDS011;2025;48.260;16.432;2023-04-24T13:49:00;5.32;;;0.82;;
4021;SDS011;2025;48.260;16.432;2023-04-24T13:51:30;3.42;;;0.77;;
4021;SDS011;2025;48.260;16.432;2023-04-24T13:53:57;3.33;;;0.52;;
4021;SDS011;2025;48.260;16.432;2023-04-24T13:56:24;3.30;;;1.08;;
4021;SDS011;2025;48.260;16.432;2023-04-24T13:58:52;3.47;;;0.95;;
4021;SDS011;2025;48.260;16.432;2023-04-24T14:01:20;3.42;;;1.05;;
4021;SDS011;2025;48.260;16.432;2023-04-24T14:03:49;4.70;;;0.73;;
4021;SDS011;2025;48.260;16.432;2023-04-24T14:06:17;4.25;;;1.02;;
4021;SDS011;2025;48.260;16.432;2023-04-24T14:08:45;4.35;;;0.82;;
4021;SDS011;2025;48.260;16.432;2023-04-24T14:11:13;3.65;;;0.82;;
4021;SDS011;2025;48.260;16.432;2023-04-24T14:13:41;4.57;;;0.85;;
4021;SDS011;2025;48.260;16.432;2023-04-24T14:16:08;3.85;;;1.13;;
4021;SDS011;2025;48.260;16.432;2023-04-24T14:18:36;5.25;;;1.52;;
4021;SDS011;2025;48.260;16.432;2023-04-24T14:21:03;4.82;;;1.42;;
4021;SDS011;2025;48.260;16.432;2023-04-24T14:23:30;5.38;;;1.42;;
4021;SDS011;2025;48.260;16.432;2023-04-24T14:25:58;4.57;;;1.55;;
4021;SDS011;2025;48.260;16.432;2023-04-24T14:28:26;9.27;;;1.63;;
4021;SDS011;2025;48.260;16.432;2023-04-24T14:30:53;4.43;;;1.13;;
4021;SDS011;2025;48.260;16.432;2023-04-24T14:33:20;6.10;;;1.90;;
4021;SDS011;2025;48.260;16.432;2023-04-24T14:35:47;4.75;;;1.98;;
4021;SDS011;2025;48.260;16.432;2023-04-24T14:38:14;6.85;;;2.47;;
4021;SDS011;2025;48.260;16.432;2023-04-24T14:40:41;5.88;;;2.50;;
4021;SDS011;2025;48.260;16.432;2023-04-24T14:43:09;6.05;;;2.10;;
4021;SDS011;2025;48.260;16.432;2023-04-24T14:45:36;8.23;;;2.17;;
4021;SDS011;2025;48.260;16.432;2023-04-24T14:48:05;5.47;;;2.00;;
4021;SDS011;2025;48.260;16.432;2023-04-24T14:50:33;4.93;;;1.88;;
4021;SDS011;2025;48.260;16.432;2023-04-24T14:53:00;6.65;;;1.25;;
4021;SDS011;2025;48.260;16.432;2023-04-24T14:55:27;4.57;;;1.77;;
4021;SDS011;2025;48.260;16.432;2023-04-24T14:57:54;5.55;;;2.00;;
4021;SDS011;2025;48.260;16.432;2023-04-24T15:00:23;4.95;;;1.88;;
4021;SDS011;2025;48.260;16.432;2023-04-24T15:02:50;5.80;;;1.83;;
4021;SDS011;2025;48.260;16.432;2023-04-24T15:05:17;7.85;;;2.60;;
4021;SDS011;2025;48.260;16.432;2023-04-24T15:07:44;5.65;;;2.67;;
4021;SDS011;2025;48.260;16.432;2023-04-24T15:10:11;5.50;;;2.38;;
4021;SDS011;2025;48.260;16.432;2023-04-24T15:12:38;5.60;;;1.75;;
4021;SDS011;2025;48.260;16.432;2023-04-24T15:15:06;7.30;;;2.00;;
4021;SDS011;2025;48.260;16.432;2023-04-24T15:17:35;6.43;;;2.08;;